ENBR/BGO METAR and TAF weather

Enter ICAO airport designator
Station Type Date Time Source
ENBR METAR 2019/12/06 03:50 UTC NOAA

ENBR 060350Z 32008KT 9000 -RA FEW005 SCT010 BKN021 06/05 Q0986 RMK WIND 1200FT 30018KT


Station Type Date Time Source
ENBR Decoded METAR 2019/12/06 03:50 UTC NOAA

Bergen / Flesland, Norway (ENBR) 60-17N 005-14E 50M
Dec 05, 2019 - 10:50 PM EST / 2019.12.06 0350 UTC
Wind: from the NW (320 degrees) at 9 MPH (8 KT):0
Visibility: 5 mile(s):0
Sky conditions: mostly cloudy
Weather: light rain
Temperature: 42 F (6 C)
Dew Point: 41 F (5 C)
Relative Humidity: 93%
Pressure (altimeter): 29.12 in. Hg (0986 hPa)
ob: ENBR 060350Z 32008KT 9000 -RA FEW005 SCT010 BKN021 06/05 Q0986 RMK WIND 1200FT 30018KT
cycle: 4

Station Type Date Time Source
ENBR TAF 2019/12/05 18:57 UTC NOAA

TAF ENBR 051700Z 0518/0618 23015KT 9999 -SHRA FEW008 SCT012CB BKN015
TEMPO 0518/0520 24020G32KT
TEMPO 0518/0603 4000 RADZ BR BKN007 PROB30
TEMPO 0603/0612 VRB08KT RA BKN012
BECMG 0523/0601 30008KT

Example: see airport list